createdAt,value
2023-02-27T00:00:20.105Z,1027.8
2023-02-27T00:05:20.127Z,1027.8
2023-02-27T00:10:20.104Z,1027.8
2023-02-27T00:15:20.111Z,1027.9
2023-02-27T00:20:20.136Z,1027.9
2023-02-27T00:25:20.112Z,1027.9
2023-02-27T00:30:20.102Z,1027.9
2023-02-27T00:35:20.118Z,1028
2023-02-27T00:40:20.107Z,1028
2023-02-27T00:45:20.117Z,1027.9
2023-02-27T00:50:20.118Z,1028
2023-02-27T00:55:20.109Z,1028
2023-02-27T01:00:20.101Z,1028.1
2023-02-27T01:05:20.125Z,1028
2023-02-27T01:10:20.111Z,1028.1
2023-02-27T01:15:20.156Z,1028
2023-02-27T01:20:20.105Z,1028.1
2023-02-27T01:25:20.104Z,1028
2023-02-27T01:30:20.104Z,1028
2023-02-27T01:35:20.116Z,1028.1
2023-02-27T01:40:20.113Z,1028
2023-02-27T01:45:20.112Z,1028.1
2023-02-27T01:50:20.101Z,1028.1
2023-02-27T01:55:20.109Z,1028.1
2023-02-27T02:00:20.108Z,1028.2
2023-02-27T02:05:20.105Z,1028.1
2023-02-27T02:10:20.135Z,1028.1
2023-02-27T02:15:20.125Z,1028.1
2023-02-27T02:20:20.106Z,1028.1
2023-02-27T02:25:20.119Z,1028.2
2023-02-27T02:30:20.098Z,1028.2
2023-02-27T02:35:20.114Z,1028.3
2023-02-27T02:40:20.122Z,1028.3
2023-02-27T02:45:20.123Z,1028.3
2023-02-27T02:50:20.112Z,1028.2
2023-02-27T02:55:20.109Z,1028.3
2023-02-27T03:00:20.103Z,1028.3
2023-02-27T03:05:20.117Z,1028.2
2023-02-27T03:10:20.112Z,1028.3
2023-02-27T03:15:20.118Z,1028.2
2023-02-27T03:20:20.113Z,1028.2
2023-02-27T03:25:20.278Z,1028.2
2023-02-27T03:30:20.104Z,1028.3
2023-02-27T03:35:20.109Z,1028.3
2023-02-27T03:40:20.103Z,1028.3
2023-02-27T03:45:20.107Z,1028.4
2023-02-27T03:50:20.099Z,1028.5
2023-02-27T03:55:20.122Z,1028.4
2023-02-27T04:00:20.105Z,1028.4
2023-02-27T04:05:20.108Z,1028.4
2023-02-27T04:10:20.106Z,1028.4
2023-02-27T04:15:20.105Z,1028.6
2023-02-27T04:20:20.116Z,1028.6
2023-02-27T04:25:20.096Z,1028.6
2023-02-27T04:30:20.112Z,1028.6
2023-02-27T04:35:20.108Z,1028.7
2023-02-27T04:40:20.107Z,1028.8
2023-02-27T04:45:20.123Z,1028.8
2023-02-27T04:50:20.099Z,1028.9
2023-02-27T04:55:20.114Z,1028.8
2023-02-27T05:00:20.113Z,1028.9
2023-02-27T05:05:20.111Z,1028.9
2023-02-27T05:10:20.118Z,1028.9
2023-02-27T05:15:20.129Z,1029
2023-02-27T05:20:20.111Z,1029.1
2023-02-27T05:25:20.107Z,1029
2023-02-27T05:30:20.113Z,1029
2023-02-27T05:35:20.140Z,1029.2
2023-02-27T05:40:20.131Z,1029.2
2023-02-27T05:45:20.116Z,1029.4
2023-02-27T05:50:20.106Z,1029.5
2023-02-27T05:55:20.112Z,1029.4
2023-02-27T06:00:20.135Z,1029.5
2023-02-27T06:05:20.130Z,1029.5
2023-02-27T06:10:20.101Z,1029.4
2023-02-27T06:15:20.111Z,1029.4
2023-02-27T06:20:20.119Z,1029.6
2023-02-27T06:25:20.106Z,1029.7
2023-02-27T06:30:20.113Z,1029.7
2023-02-27T06:35:20.100Z,1029.7
2023-02-27T06:40:20.103Z,1029.7
2023-02-27T06:45:20.114Z,1029.7
2023-02-27T06:50:20.100Z,1029.7
2023-02-27T06:55:20.165Z,1029.7
2023-02-27T07:00:20.106Z,1029.8
2023-02-27T07:05:20.104Z,1029.8
2023-02-27T07:10:20.098Z,1029.8
2023-02-27T07:15:20.107Z,1029.8
2023-02-27T07:20:20.114Z,1029.9
2023-02-27T07:25:20.106Z,1029.9
2023-02-27T07:30:20.102Z,1030
2023-02-27T07:35:20.107Z,1030
2023-02-27T07:40:20.117Z,1030
2023-02-27T07:45:20.126Z,1030.1
2023-02-27T07:50:20.104Z,1030.1
2023-02-27T07:55:20.112Z,1030
2023-02-27T08:00:20.103Z,1030.1
2023-02-27T08:05:20.113Z,1030.1
2023-02-27T08:10:20.114Z,1030
2023-02-27T08:15:20.117Z,1030
2023-02-27T08:20:20.123Z,1030
2023-02-27T08:25:20.111Z,1030
2023-02-27T08:30:20.112Z,1030
2023-02-27T08:35:20.113Z,1030
2023-02-27T08:40:20.100Z,1030
2023-02-27T08:45:20.122Z,1030
2023-02-27T08:50:20.102Z,1030
2023-02-27T08:55:20.129Z,1030.1
2023-02-27T09:00:20.179Z,1030
2023-02-27T09:05:20.106Z,1030.1
2023-02-27T09:10:20.095Z,1030
2023-02-27T09:15:20.104Z,1030.1
2023-02-27T09:20:20.101Z,1030.1
2023-02-27T09:25:20.110Z,1030.1
2023-02-27T09:30:20.111Z,1030.2
2023-02-27T09:35:20.110Z,1030.1
2023-02-27T09:40:20.097Z,1030.1
2023-02-27T09:45:20.102Z,1030.1
2023-02-27T09:50:20.111Z,1030
2023-02-27T09:55:20.106Z,1029.9
2023-02-27T10:00:20.139Z,1030.1
2023-02-27T10:05:20.105Z,1030
2023-02-27T10:10:20.179Z,1030
2023-02-27T10:15:20.104Z,1030.1
2023-02-27T10:20:20.161Z,1030
2023-02-27T10:25:31.081Z,1030.2
2023-02-27T10:30:27.361Z,1030.1
2023-02-27T10:35:20.108Z,1030.2
2023-02-27T10:40:20.115Z,1030.1
2023-02-27T10:45:20.117Z,1030.2
2023-02-27T10:50:20.099Z,1030.1
2023-02-27T10:55:20.115Z,1030.1
2023-02-27T11:00:20.101Z,1030.1
2023-02-27T11:05:20.099Z,1030
2023-02-27T11:10:20.112Z,1030
2023-02-27T11:15:20.104Z,1030
2023-02-27T11:20:20.104Z,1030
2023-02-27T11:25:20.106Z,1030.1
2023-02-27T11:30:20.106Z,1030.1
2023-02-27T11:35:20.101Z,1030.1
2023-02-27T11:40:20.113Z,1030
2023-02-27T11:46:05.436Z,1029.9
2023-02-27T11:50:20.109Z,1029.8
2023-02-27T11:55:20.103Z,1029.7
2023-02-27T12:00:20.112Z,1029.6
2023-02-27T12:05:20.116Z,1029.6
2023-02-27T12:10:20.116Z,1029.6
2023-02-27T12:15:20.125Z,1029.6
2023-02-27T12:20:20.107Z,1029.5
2023-02-27T12:25:20.106Z,1029.5
2023-02-27T12:30:20.113Z,1029.5
2023-02-27T12:35:20.109Z,1029.4
2023-02-27T12:40:20.093Z,1029.4
2023-02-27T12:45:20.106Z,1029.3
2023-02-27T12:50:20.100Z,1029.4
2023-02-27T12:55:20.106Z,1029.4
2023-02-27T13:00:20.115Z,1029.4
2023-02-27T13:05:20.106Z,1029.4
2023-02-27T13:10:20.103Z,1029.4
2023-02-27T13:15:20.110Z,1029.3
2023-02-27T13:20:20.098Z,1029.3
2023-02-27T13:25:20.109Z,1029.3
2023-02-27T13:30:20.110Z,1029.3
2023-02-27T13:35:20.106Z,1029.3
2023-02-27T13:40:20.093Z,1029.3
2023-02-27T13:45:20.119Z,1029.3
2023-02-27T13:50:20.094Z,1029.2
2023-02-27T13:55:20.105Z,1029.3
2023-02-27T14:00:20.116Z,1029.2
2023-02-27T14:05:20.114Z,1029.2
2023-02-27T14:10:20.117Z,1029.2
2023-02-27T14:15:20.107Z,1029.2
2023-02-27T14:20:20.099Z,1029.2
2023-02-27T14:25:20.110Z,1029.2
2023-02-27T14:30:20.110Z,1029.2
2023-02-27T14:35:20.105Z,1029.2
2023-02-27T14:40:28.179Z,1029.2
2023-02-27T14:45:21.308Z,1029.2
2023-02-27T14:50:20.102Z,1029.2
2023-02-27T14:55:20.136Z,1029.3
2023-02-27T15:00:20.110Z,1029.2
2023-02-27T15:05:20.106Z,1029.2
2023-02-27T15:10:20.114Z,1029.3
2023-02-27T15:15:20.110Z,1029.3
2023-02-27T15:20:20.105Z,1029.2
2023-02-27T15:25:20.116Z,1029.2
2023-02-27T15:30:20.110Z,1029.3
2023-02-27T15:35:20.137Z,1029.3
2023-02-27T15:40:20.109Z,1029.3
2023-02-27T15:45:20.119Z,1029.4
2023-02-27T15:50:20.100Z,1029.4
2023-02-27T15:55:20.119Z,1029.4
2023-02-27T16:00:20.100Z,1029.5
2023-02-27T16:05:20.116Z,1029.5
2023-02-27T16:10:20.107Z,1029.5
2023-02-27T16:15:20.112Z,1029.6
2023-02-27T16:20:20.099Z,1029.6
2023-02-27T16:25:20.108Z,1029.6
2023-02-27T16:30:20.112Z,1029.6
2023-02-27T16:35:20.111Z,1029.7
2023-02-27T16:40:20.207Z,1029.8
2023-02-27T16:45:20.118Z,1029.8
2023-02-27T16:50:20.112Z,1029.8
2023-02-27T16:55:20.119Z,1029.9
2023-02-27T17:00:20.112Z,1029.9
2023-02-27T17:05:20.102Z,1030
2023-02-27T17:10:20.105Z,1030
2023-02-27T17:15:20.110Z,1030.1
2023-02-27T17:20:20.111Z,1030.1
2023-02-27T17:25:20.114Z,1030.1
2023-02-27T17:30:20.106Z,1030.2
2023-02-27T17:35:20.101Z,1030.2
2023-02-27T17:40:20.107Z,1030.3
2023-02-27T17:45:20.115Z,1030.4
2023-02-27T17:50:20.112Z,1030.5
2023-02-27T17:55:20.115Z,1030.5
2023-02-27T18:00:20.108Z,1030.6
2023-02-27T18:05:20.109Z,1030.6
2023-02-27T18:10:20.108Z,1030.8
2023-02-27T18:15:20.112Z,1030.7
2023-02-27T18:20:20.111Z,1030.8
2023-02-27T18:25:20.109Z,1030.7
2023-02-27T18:30:20.103Z,1030.7
2023-02-27T18:35:20.110Z,1030.8
2023-02-27T18:40:20.107Z,1030.8
2023-02-27T18:45:20.158Z,1030.9
2023-02-27T18:50:20.115Z,1030.9
2023-02-27T18:55:20.107Z,1030.8
2023-02-27T19:00:20.103Z,1030.9
2023-02-27T19:05:20.120Z,1030.9
2023-02-27T19:10:20.101Z,1030.9
2023-02-27T19:15:20.093Z,1031
2023-02-27T19:20:20.109Z,1030.9
2023-02-27T19:25:20.125Z,1030.9
2023-02-27T19:30:20.109Z,1030.9
2023-02-27T19:35:20.120Z,1031
2023-02-27T19:40:20.108Z,1031
2023-02-27T19:45:20.118Z,1031.1
2023-02-27T19:50:20.113Z,1031
2023-02-27T19:55:20.110Z,1031.1
2023-02-27T20:00:20.110Z,1031.1
2023-02-27T20:05:20.106Z,1031.1
2023-02-27T20:10:20.120Z,1031.1
2023-02-27T20:15:20.111Z,1031.1
2023-02-27T20:20:20.102Z,1031.1
2023-02-27T20:25:20.100Z,1031.2
2023-02-27T20:30:20.105Z,1031.2
2023-02-27T20:35:20.109Z,1031.3
2023-02-27T20:40:20.108Z,1031.4
2023-02-27T20:45:20.105Z,1031.2
2023-02-27T20:50:20.104Z,1031.3
2023-02-27T20:55:20.126Z,1031.3
2023-02-27T21:00:20.098Z,1031.2
2023-02-27T21:05:20.117Z,1031.1
2023-02-27T21:10:20.116Z,1031.1
2023-02-27T21:15:20.138Z,1031.2
2023-02-27T21:20:20.112Z,1031.2
2023-02-27T21:25:20.098Z,1031.2
2023-02-27T21:30:20.112Z,1031.2
2023-02-27T21:35:20.124Z,1031.1
2023-02-27T21:40:20.101Z,1031.1
2023-02-27T21:45:20.105Z,1031.1
2023-02-27T21:50:20.106Z,1031
2023-02-27T21:55:20.107Z,1031
2023-02-27T22:00:20.105Z,1031
2023-02-27T22:05:20.101Z,1031.1
2023-02-27T22:10:20.099Z,1030.9
2023-02-27T22:15:20.110Z,1030.9
2023-02-27T22:20:20.103Z,1030.9
2023-02-27T22:25:20.103Z,1031
2023-02-27T22:30:20.103Z,1031
2023-02-27T22:35:20.099Z,1031
2023-02-27T22:40:20.112Z,1031
2023-02-27T22:45:20.113Z,1031.1
2023-02-27T22:50:20.110Z,1031.1
2023-02-27T22:55:20.115Z,1031
2023-02-27T23:00:20.109Z,1031.1
2023-02-27T23:05:20.103Z,1031.1
2023-02-27T23:10:20.109Z,1031.1
2023-02-27T23:15:20.196Z,1031
2023-02-27T23:20:20.104Z,1031
2023-02-27T23:25:20.114Z,1030.9
2023-02-27T23:30:20.107Z,1030.9
2023-02-27T23:35:20.105Z,1031
2023-02-27T23:40:20.104Z,1031
2023-02-27T23:45:20.112Z,1031
2023-02-27T23:50:20.093Z,1031.1
2023-02-27T23:55:20.128Z,1031
